Aviation Digital Data Service (ADDS)

Output produced by TAFs form (0453 UTC 20 October 2017)
found at http://aviationweather.gov/adds/tafs/
 
KAEG 200019Z 2000/2024 29014G24KT P6SM VCSH BKN070 
     FM200400 22006KT P6SM FEW005 BKN100 
     FM201600 19006KT P6SM FEW100 
     FM201900 22012G22KT P6SM SKC